CW9922 Weather Reports


Display with metric or nautical units.
time (UTC)temp
F
wind
direction
speed
MPH
gust
MPH
rain 1hr
in
rain 24hr
in
rain mn
in
humidity
%
barometer
mb
20221208033439 29 92 10.0 10.0 0.00 0.00 0.00 63 1021.8
20221208032339 30 92 8.0 10.0 0.00 0.00 0.00 63 1021.9
20221208031239 31 105 9.0 12.0 0.00 0.00 0.00 62 1022.1
20221208030158 31 102 9.0 10.0 0.00 0.00 0.00 61 1022.1
20221208025039 31 102 6.0 10.0 0.00 0.00 0.00 60 1022.1
20221208023958 32 99 6.0 10.0 0.00 0.00 0.00 60 1022.1
20221208022838 31 110 10.0 11.0 0.00 0.00 0.00 59 1022.2
20221208021738 31 111 10.0 10.0 0.00 0.00 0.00 57 1022.3
20221208020637 31 109 8.0 10.0 0.00 0.00 0.00 56 1022.1
20221208015557 31 109 9.0 10.0 0.00 0.00 0.00 55 1022.2
20221208014437 32 115 9.0 10.0 0.00 0.00 0.00 52 1022.2
20221208013337 33 102 6.0 8.0 0.00 0.00 0.00 49 1022.1
20221208012237 35 101 6.0 9.0 0.00 0.00 0.00 48 1022.0
20221208011137 35 129 9.0 11.0 0.00 0.00 0.00 51 1021.8
20221208010037 35 130 10.0 10.0 0.00 0.00 0.00 50 1021.7
20221208004956 34 132 10.0 10.0 0.00 0.00 0.00 49 1021.6
20221208003836 34 126 8.0 9.0 0.00 0.00 0.00 44 1021.6
20221208002816 36 119 9.0 9.0 0.00 0.00 0.00 42 1021.5
20221208001636 37 116 6.0 6.0 0.00 0.00 0.00 40 1021.5
20221208000536 38 105 8.0 8.0 0.00 0.00 0.00 39 1021.2
20221207235435 39 107 10.0 10.0 0.00 0.00 0.00 38 1021.2
20221207234335 41 103 8.0 9.0 0.00 0.00 0.00 35 1021.1
20221207233235 43 103 6.0 8.0 0.00 0.00 0.00 33 1021.2
20221207232135 45 97 8.0 10.0 0.00 0.00 0.00 32 1021.1
20221207231035 47 93 10.0 10.0 0.00 0.00 0.00 31 1021.0
20221207225935 48 107 9.0 12.0 0.00 0.00 0.00 29 1020.9
20221207224834 49 97 10.0 12.0 0.00 0.00 0.00 27 1021.0
20221207223734 50 91 10.0 15.0 0.00 0.00 0.00 26 1021.1
20221207222634 51 111 15.0 16.0 0.00 0.00 0.00 25 1021.1
20221207221534 51 103 11.0 18.0 0.00 0.00 0.00 25 1021.1
20221207220434 51 90 14.0 17.0 0.00 0.00 0.00 25 1021.1
20221207215334 52 92 13.0 16.0 0.00 0.00 0.00 25 1021.1
20221207214233 52 116 11.0 18.0 0.00 0.00 0.00 25 1020.9
20221207213153 52 92 9.0 14.0 0.00 0.00 0.00 25 1020.8
20221207212114 52 105 11.0 17.0 0.00 0.00 0.00 24 1020.9
20221207210933 53 105 14.0 17.0 0.00 0.00 0.00 23 1021.1
20221207205853 53 105 13.0 16.0 0.00 0.00 0.00 23 1021.1
20221207204732 53 106 10.0 15.0 0.00 0.00 0.00 22 1021.1
20221207203653 53 82 11.0 14.0 0.00 0.00 0.00 22 1021.3
20221207202532 53 100 13.0 15.0 0.00 0.00 0.00 22 1021.5
20221207201432 53 86 5.0 17.0 0.00 0.00 0.00 22 1021.5
20221207200332 52 80 14.0 16.0 0.00 0.00 0.00 22 1021.5
20221207195252 52 82 10.0 17.0 0.00 0.00 0.00 23 1021.6
20221207194131 52 78 11.0 16.0 0.00 0.00 0.00 23 1021.6
20221207193031 52 85 14.0 17.0 0.00 0.00 0.00 23 1021.8
20221207191931 53 72 11.0 17.0 0.00 0.00 0.00 23 1021.8
20221207190831 52 68 11.0 16.0 0.00 0.00 0.00 25 1021.9
20221207185731 52 71 15.0 17.0 0.00 0.00 0.00 26 1022.0
20221207184630 52 74 13.0 18.0 0.00 0.00 0.00 27 1022.2
20221207183530 52 77 12.0 18.0 0.00 0.00 0.00 28 1022.3
20221207182430 50 86 10.0 17.0 0.00 0.00 0.00 29 1022.5
20221207181330 50 52 10.0 20.0 0.00 0.00 0.00 29 1022.5
20221207180230 51 74 15.0 17.0 0.00 0.00 0.00 29 1022.7
20221207175130 50 36 6.0 14.0 0.00 0.00 0.00 30 1022.7
20221207174030 49 65 10.0 14.0 0.00 0.00 0.00 32 1022.9
20221207172929 48 68 9.0 12.0 0.00 0.00 0.00 34 1023.0
20221207171829 48 89 4.0 7.0 0.00 0.00 0.00 35 1023.2
20221207170729 47 57 4.0 8.0 0.00 0.00 0.00 37 1023.2
20221207165649 46 46 6.0 10.0 0.00 0.00 0.00 38 1023.2
20221207164529 44 82 4.0 10.0 0.00 0.00 0.00 42 1023.0
20221207163429 41 49 3.0 4.0 0.00 0.00 0.00 50 1022.8
20221207162348 40 31 3.0 4.0 0.00 0.00 0.00 53 1022.6
20221207161228 37 27 2.0 3.0 0.00 0.00 0.00 59 1022.8
20221207160148 34 28 2.0 3.0 0.00 0.00 0.00 62 1022.9
20221207155028 32 30 0.0 2.0 0.00 0.00 0.00 64 1022.9
20221207153928 30 24 1.0 2.0 0.00 0.00 0.00 66 1022.8
20221207152827 28 318 0.0 3.0 0.00 0.00 0.00 71 1022.5
20221207151727 26 315 1.0 2.0 0.00 0.00 0.00 73 1022.5
20221207150627 23 315 1.0 2.0 0.00 0.00 0.00 75 1022.8
20221207145527 21 309 1.0 2.0 0.00 0.00 0.00 74 1022.6
20221207144427 19 309 1.0 4.0 0.00 0.00 0.00 75 1022.8
20221207143327 17 308 3.0 4.0 0.00 0.00 0.00 76 1022.7
20221207142226 16 355 1.0 3.0 0.00 0.00 0.00 76 1022.5
20221207141126 16 221 3.0 4.0 0.00 0.00 0.00 76 1022.3
20221207140046 15 280 0.0 4.0 0.00 0.00 0.00 76 1022.3
20221207134926 16 280 3.0 4.0 0.00 0.00 0.00 75 1021.8
20221207133826 15 343 2.0 6.0 0.00 0.00 0.00 75 1021.8
20221207132726 17 242 4.0 6.0 0.00 0.00 0.00 73 1021.4
20221207131625 17 232 6.0 6.0 0.00 0.00 0.00 75 1021.2
20221207130545 17 226 4.0 5.0 0.00 0.00 0.00 75 1021.0
20221207125425 17 228 3.0 4.0 0.00 0.00 0.00 74 1020.8
20221207124345 17 231 4.0 4.0 0.00 0.00 0.00 72 1020.7
20221207123225 18 233 2.0 3.0 0.00 0.00 0.00 73 1020.9
20221207122125 18 232 1.0 3.0 0.00 0.00 0.00 73 1020.8
20221207121024 18 234 3.0 4.0 0.00 0.00 0.00 72 1020.6
20221207115924 18 272 3.0 3.0 0.00 0.00 0.00 72 1020.4
20221207114824 18 272 3.0 3.0 0.00 0.00 0.00 71 1020.5
20221207113724 19 272 3.0 3.0 0.00 0.00 0.00 71 1020.7
20221207112624 19 275 3.0 3.0 0.00 0.00 0.00 70 1020.7
20221207111523 20 344 1.0 3.0 0.00 0.00 0.00 69 1020.6
20221207110443 21 346 1.0 3.0 0.00 0.00 0.00 69 1020.7
20221207105323 21 345 1.0 3.0 0.00 0.00 0.00 69 1020.7
20221207104223 20 345 1.0 3.0 0.00 0.00 0.00 71 1020.5
20221207103123 20 209 1.0 2.0 0.00 0.00 0.00 69 1020.3
20221207102022 20 209 1.0 2.0 0.00 0.00 0.00 70 1020.4
20221207100923 20 213 4.0 4.0 0.00 0.00 0.00 68 1020.2
20221207095822 22 211 4.0 5.0 0.00 0.00 0.00 68 1020.2
20221207094722 23 260 3.0 3.0 0.00 0.00 0.00 68 1020.3
20221207093622 22 260 1.0 3.0 0.00 0.00 0.00 67 1020.3
20221207092522 23 260 3.0 4.0 0.00 0.00 0.00 64 1020.2
20221207091422 24 229 3.0 4.0 0.00 0.00 0.00 65 1020.1
20221207090321 24 229 3.0 4.0 0.00 0.00 0.00 65 1019.9
20221207085221 24 229 3.0 5.0 0.00 0.00 0.00 62 1019.7
20221207084121 26 207 3.0 4.0 0.00 0.00 0.00 61 1019.6
20221207083021 27 205 3.0 3.0 0.00 0.00 0.00 62 1019.5
20221207081921 27 205 3.0 3.0 0.00 0.00 0.00 59 1019.4
20221207080841 28 186 2.0 3.0 0.00 0.00 0.00 61 1019.6
20221207075720 29 288 3.0 3.0 0.00 0.00 0.00 58 1019.5
20221207074620 30 287 3.0 3.0 0.00 0.00 0.00 57 1019.4
20221207073520 31 287 3.0 3.0 0.00 0.00 0.00 57 1019.6
20221207072420 32 287 3.0 3.0 0.00 0.00 0.00 55 1019.5
20221207071320 32 231 0.0 1.0 0.00 0.00 0.00 56 1019.5
20221207070219 33 225 1.0 2.0 0.00 0.00 0.00 53 1019.4
20221207065119 33 226 0.0 2.0 0.00 0.00 0.00 53 1019.5
20221207064019 34 194 3.0 5.0 0.00 0.00 0.00 52 1019.3
20221207062919 35 196 2.0 4.0 0.00 0.00 0.00 52 1019.3
20221207061839 36 200 3.0 4.0 0.00 0.00 0.00 52 1019.4
20221207060719 36 188 2.0 5.0 0.00 0.00 0.00 52 1019.3
20221207055619 36 233 3.0 8.0 0.00 0.00 0.00 52 1019.3
20221207054518 37 229 6.0 8.0 0.00 0.00 0.00 51 1019.0
20221207053418 37 217 5.0 8.0 0.00 0.00 0.00 50 1018.7
20221207052318 38 215 4.0 8.0 0.00 0.00 0.00 50 1018.8
20221207051218 38 202 6.0 6.0 0.00 0.00 0.00 49 1018.8
20221207050118 38 264 3.0 6.0 0.00 0.00 0.00 49 1019.0
20221207045017 38 255 2.0 4.0 0.00 0.00 0.00 49 1018.9
20221207043917 39 274 2.0 8.0 0.00 0.00 0.00 49 1018.7
20221207042817 39 244 8.0 10.0 0.00 0.00 0.00 49 1018.6
20221207041717 39 189 5.0 5.0 0.00 0.00 0.00 49 1018.5
20221207040617 38 181 4.0 9.0 0.00 0.00 0.00 50 1018.5
20221207035516 37 197 5.0 8.0 0.00 0.00 0.00 50 1018.5
20221207034416 35 203 5.0 10.0 0.00 0.00 0.00 52 1018.3